Time;durP1;ratioP1;P1;durP2;ratioP2;P2;SDS_P1;SDS_P2;PMS_P1;PMS_P2;Temp;Humidity;BMP_temperature;BMP_pressure;BME280_temperature;BME280_humidity;BME280_pressure;Samples;Min_cycle;Max_cycle;Signal;HPM_P1;HPM_P2
2021/10/11 00:01:32;;;;;;;143.90;92.60;;;;;;;4.01;66.76;101350.00;116478;1193;21900;-78
2021/10/11 00:04:01;;;;;;;145.20;90.70;;;;;;;4.02;66.70;101352.94;116467;1189;23462;-77
2021/10/11 00:06:30;;;;;;;161.60;95.80;;;;;;;3.99;66.41;101353.16;116904;1188;21900;-77
2021/10/11 00:08:59;;;;;;;147.80;91.40;;;;;;;3.95;66.42;101353.70;116780;1189;22927;-77
2021/10/11 00:11:29;;;;;;;150.70;92.60;;;;;;;3.91;66.38;101352.60;116925;1187;22385;-76
2021/10/11 00:13:58;;;;;;;146.70;91.00;;;;;;;3.84;66.22;101351.71;116916;1188;21922;-76
2021/10/11 00:16:28;;;;;;;131.60;88.90;;;;;;;3.74;66.30;101350.21;116890;1188;21882;-76
2021/10/11 00:18:57;;;;;;;135.80;85.10;;;;;;;3.66;66.46;101352.15;116915;1187;21946;-76
2021/10/11 00:21:26;;;;;;;135.20;84.70;;;;;;;3.61;66.68;101354.55;117024;1187;21863;-77
2021/10/11 00:23:56;;;;;;;133.30;78.90;;;;;;;3.56;66.71;101352.08;116941;1188;21885;-76
2021/10/11 00:26:25;;;;;;;123.80;77.70;;;;;;;3.51;66.77;101356.05;116872;1188;21898;-76
2021/10/11 00:28:54;;;;;;;135.60;82.50;;;;;;;3.47;66.87;101357.20;117016;1188;21906;-76
2021/10/11 00:31:24;;;;;;;123.60;76.40;;;;;;;3.44;66.88;101359.50;116795;1187;22832;-76
2021/10/11 00:33:56;;;;;;;132.60;81.30;;;;;;;3.43;67.03;101359.73;116808;1188;21894;-76
2021/10/11 00:36:25;;;;;;;127.80;77.20;;;;;;;3.39;66.99;101358.55;116941;1188;21874;-76
2021/10/11 00:38:55;;;;;;;116.10;74.20;;;;;;;3.36;67.04;101354.39;116563;1191;21896;-76
2021/10/11 00:41:27;;;;;;;127.40;75.40;;;;;;;3.33;67.13;101348.33;116485;1192;21933;-77
2021/10/11 00:44:02;;;;;;;119.10;75.00;;;;;;;3.29;67.30;101344.89;116511;1190;21882;-75
2021/10/11 00:46:31;;;;;;;112.60;71.70;;;;;;;3.29;67.61;101340.73;116492;1192;21896;-76
2021/10/11 00:49:00;;;;;;;115.00;73.10;;;;;;;3.31;67.70;101336.81;116545;1192;22954;-76
2021/10/11 00:51:30;;;;;;;108.00;71.30;;;;;;;3.30;67.68;101332.65;116719;1188;22000;-77
2021/10/11 00:54:00;;;;;;;113.40;72.30;;;;;;;3.31;67.80;101326.70;116690;1192;21888;-77
2021/10/11 00:56:29;;;;;;;120.10;74.30;;;;;;;3.31;67.84;101324.61;116663;1190;22451;-76
2021/10/11 00:58:58;;;;;;;121.30;76.70;;;;;;;3.28;67.59;101322.83;116827;1187;22071;-77
2021/10/11 01:01:27;;;;;;;118.00;73.30;;;;;;;3.26;67.60;101313.77;117062;1187;21948;-77
2021/10/11 01:03:58;;;;;;;120.00;70.80;;;;;;;3.24;67.77;101305.86;116589;1191;21897;-76
2021/10/11 01:06:28;;;;;;;100.20;63.20;;;;;;;3.21;67.76;101308.29;116763;1191;21931;-77
2021/10/11 01:08:58;;;;;;;114.00;70.70;;;;;;;3.19;68.05;101306.71;116776;1191;23650;-77
2021/10/11 01:11:27;;;;;;;120.50;74.60;;;;;;;3.21;68.34;101309.73;116756;1191;21897;-75
2021/10/11 01:13:57;;;;;;;103.70;65.40;;;;;;;3.22;68.29;101299.56;116720;1191;22848;-75
2021/10/11 01:16:26;;;;;;;101.30;66.30;;;;;;;3.21;68.17;101293.36;116751;1188;22042;-76
2021/10/11 01:18:56;;;;;;;96.70;62.90;;;;;;;3.21;68.34;101290.56;116736;1191;23004;-75
2021/10/11 01:21:26;;;;;;;100.00;64.10;;;;;;;3.23;68.44;101287.85;116644;1189;22129;-76
2021/10/11 01:23:56;;;;;;;87.40;58.40;;;;;;;3.24;68.38;101279.92;116805;1189;21887;-76
2021/10/11 01:26:39;;;;;;;81.20;57.30;;;;;;;3.23;68.40;101275.65;116735;1191;21866;-77
2021/10/11 01:29:12;;;;;;;83.40;57.50;;;;;;;3.20;68.39;101271.13;116630;1191;21908;-77
2021/10/11 01:31:42;;;;;;;85.10;57.00;;;;;;;3.18;68.39;101268.31;116738;1191;22246;-77
2021/10/11 01:34:12;;;;;;;86.90;56.80;;;;;;;3.17;68.61;101263.65;116768;1191;21902;-75
2021/10/11 01:36:42;;;;;;;78.20;54.30;;;;;;;3.20;68.80;101261.89;116770;1191;22740;-76
2021/10/11 01:39:11;;;;;;;87.70;56.60;;;;;;;3.24;68.97;101258.52;116551;1189;22308;-76
2021/10/11 01:41:40;;;;;;;83.50;56.30;;;;;;;3.27;68.74;101257.66;116574;1192;21891;-76
2021/10/11 01:44:10;;;;;;;84.20;57.80;;;;;;;3.28;68.62;101257.59;116779;1189;22216;-75
2021/10/11 01:46:39;;;;;;;79.90;58.90;;;;;;;3.28;68.64;101253.02;116774;1187;24152;-75
2021/10/11 01:49:10;;;;;;;80.80;60.30;;;;;;;3.28;68.63;101253.75;116711;1183;21960;-76
2021/10/11 01:51:40;;;;;;;93.60;60.40;;;;;;;3.28;68.67;101253.38;116791;1191;22531;-76
2021/10/11 01:54:09;;;;;;;79.60;60.30;;;;;;;3.28;68.61;101248.67;116767;1178;21877;-76
2021/10/11 01:56:38;;;;;;;85.30;60.30;;;;;;;3.29;68.62;101243.22;116783;1190;22943;-76
2021/10/11 01:59:07;;;;;;;80.70;61.60;;;;;;;3.27;68.37;101242.45;116734;1191;21923;-76
2021/10/11 02:01:36;;;;;;;85.40;66.20;;;;;;;3.23;68.00;101245.69;116464;1194;21896;-77
2021/10/11 02:04:06;;;;;;;93.70;66.80;;;;;;;3.18;67.93;101246.20;116341;1194;21892;-76
2021/10/11 02:06:35;;;;;;;96.60;70.20;;;;;;;3.12;67.93;101244.48;116434;1193;22206;-75
2021/10/11 02:09:04;;;;;;;92.10;70.80;;;;;;;3.08;68.09;101241.95;116447;1193;23062;-75
2021/10/11 02:11:33;;;;;;;88.40;67.50;;;;;;;3.04;68.07;101240.66;116506;1193;22430;-77
2021/10/11 02:14:03;;;;;;;84.80;67.00;;;;;;;3.00;68.21;101237.58;116435;1193;21875;-76
2021/10/11 02:16:32;;;;;;;85.80;65.90;;;;;;;2.98;68.23;101228.69;116268;1193;21923;-76
2021/10/11 02:19:01;;;;;;;76.70;57.70;;;;;;;2.98;68.53;101223.48;116253;1194;22824;-76
2021/10/11 02:21:30;;;;;;;83.30;60.60;;;;;;;2.98;68.69;101223.80;116504;1191;21890;-76
2021/10/11 02:23:59;;;;;;;83.30;61.90;;;;;;;3.01;68.81;101218.77;116760;1190;22633;-77
2021/10/11 02:26:29;;;;;;;83.50;63.40;;;;;;;3.00;68.64;101216.54;116790;1187;21888;-77
2021/10/11 02:28:58;;;;;;;92.30;64.90;;;;;;;2.99;68.57;101208.45;116480;1193;21978;-77
2021/10/11 02:31:27;;;;;;;82.50;62.70;;;;;;;2.97;68.67;101206.63;116492;1187;23014;-77
2021/10/11 02:33:56;;;;;;;77.30;62.70;;;;;;;2.97;68.66;101205.25;116451;1184;22978;-77
2021/10/11 02:36:26;;;;;;;79.40;61.30;;;;;;;2.97;68.75;101207.36;116805;1187;21961;-77
2021/10/11 02:38:55;;;;;;;85.60;61.80;;;;;;;2.95;68.52;101207.81;116246;1193;22968;-77
2021/10/11 02:41:25;;;;;;;81.60;61.80;;;;;;;2.91;68.33;101208.59;116403;1195;21957;-77
2021/10/11 02:43:54;;;;;;;90.00;63.90;;;;;;;2.87;68.32;101205.19;116425;1193;22945;-77
2021/10/11 02:46:23;;;;;;;87.20;63.60;;;;;;;2.83;68.29;101202.31;116458;1192;21934;-77
2021/10/11 02:48:52;;;;;;;84.20;63.00;;;;;;;2.80;68.46;101196.42;116721;1192;21890;-77
2021/10/11 02:51:22;;;;;;;80.40;57.10;;;;;;;2.78;68.60;101194.46;116698;1190;23609;-76
2021/10/11 02:53:51;;;;;;;79.80;58.60;;;;;;;2.71;68.45;101187.23;116706;1190;22920;-77
2021/10/11 02:56:20;;;;;;;84.10;60.90;;;;;;;2.61;68.26;101180.55;116582;1188;21892;-77
2021/10/11 02:58:50;;;;;;;89.90;63.90;;;;;;;2.52;68.50;101173.66;116892;1187;23442;-76
2021/10/11 03:01:19;;;;;;;86.50;59.70;;;;;;;2.50;68.92;101169.59;116740;1188;23551;-76
2021/10/11 03:03:48;;;;;;;96.70;64.90;;;;;;;2.50;68.99;101170.16;116816;1190;21893;-76
2021/10/11 03:06:17;;;;;;;92.80;64.40;;;;;;;2.47;68.93;101170.29;116885;1186;21920;-76
2021/10/11 03:08:49;;;;;;;106.20;70.80;;;;;;;2.45;68.92;101169.76;116781;1190;23554;-77
2021/10/11 03:11:18;;;;;;;91.50;65.20;;;;;;;2.42;68.88;101168.57;116903;1190;21888;-77
2021/10/11 03:13:48;;;;;;;86.60;64.10;;;;;;;2.39;68.98;101163.19;116884;1187;21890;-76
2021/10/11 03:16:17;;;;;;;90.20;61.30;;;;;;;2.37;69.16;101159.13;116817;1188;22624;-76
2021/10/11 03:18:47;;;;;;;77.00;56.40;;;;;;;2.33;69.04;101161.97;117041;1188;22381;-76
2021/10/11 03:21:18;;;;;;;78.80;56.30;;;;;;;2.24;68.87;101156.65;116940;1188;22654;-76
2021/10/11 03:23:49;;;;;;;67.50;51.70;;;;;;;2.17;69.21;101155.50;117013;1185;21990;-77
2021/10/11 03:26:19;;;;;;;78.10;57.00;;;;;;;2.14;69.45;101157.05;116803;1187;22103;-77
2021/10/11 03:28:51;;;;;;;73.50;53.80;;;;;;;2.13;69.64;101151.89;116579;1193;21988;-76
2021/10/11 03:31:20;;;;;;;76.10;55.80;;;;;;;2.17;69.98;101145.95;116499;1190;21947;-77
2021/10/11 03:33:50;;;;;;;74.80;54.80;;;;;;;2.18;69.89;101145.69;116501;1190;21901;-76
2021/10/11 03:36:19;;;;;;;78.60;54.40;;;;;;;2.16;69.78;101142.00;116496;1190;21910;-77
2021/10/11 03:38:48;;;;;;;73.40;53.90;;;;;;;2.12;69.75;101142.93;116475;1193;23617;-76
2021/10/11 03:41:18;;;;;;;80.10;53.90;;;;;;;2.13;70.04;101145.63;116576;1193;22888;-76
2021/10/11 03:43:47;;;;;;;73.40;54.90;;;;;;;2.13;69.86;101140.98;116490;1191;21906;-76
2021/10/11 03:46:16;;;;;;;74.70;55.70;;;;;;;2.10;69.84;101141.50;116800;1188;22503;-76
2021/10/11 03:48:45;;;;;;;69.90;53.60;;;;;;;2.10;69.95;101138.17;116804;1191;21916;-77
2021/10/11 03:51:14;;;;;;;75.30;54.40;;;;;;;2.11;69.91;101136.56;116848;1190;21894;-77
2021/10/11 03:53:44;;;;;;;72.50;55.60;;;;;;;2.10;69.74;101140.80;116846;1187;23018;-76
2021/10/11 03:56:13;;;;;;;76.60;54.70;;;;;;;2.09;69.82;101143.45;116750;1190;23513;-77
2021/10/11 03:58:42;;;;;;;76.80;56.40;;;;;;;2.10;70.03;101147.39;116852;1190;22961;-77
2021/10/11 04:01:11;;;;;;;77.00;56.10;;;;;;;2.12;70.11;101149.15;116818;1190;22839;-77
2021/10/11 04:03:44;;;;;;;76.40;54.50;;;;;;;2.14;70.06;101153.08;116767;1187;21890;-77
2021/10/11 04:06:13;;;;;;;74.40;54.70;;;;;;;2.15;70.08;101151.25;116469;1191;21891;-77
2021/10/11 04:08:45;;;;;;;80.30;54.00;;;;;;;2.14;69.91;101150.30;116737;1187;21926;-78
2021/10/11 04:13:46;;;;;;;74.60;56.60;;;;;;;2.11;69.94;101148.00;116564;1193;22640;-77
2021/10/11 04:16:16;;;;;;;70.30;55.00;;;;;;;2.09;69.82;101148.00;116283;1196;22910;-77
2021/10/11 04:18:45;;;;;;;75.50;51.90;;;;;;;2.06;69.95;101146.06;116232;1193;23553;-77
2021/10/11 04:21:14;;;;;;;73.60;57.20;;;;;;;2.06;70.00;101142.79;116246;1193;21921;-78
2021/10/11 04:23:46;;;;;;;72.10;50.80;;;;;;;2.06;70.00;101145.75;116381;1193;21887;-78
2021/10/11 04:26:16;;;;;;;67.20;51.20;;;;;;;2.03;69.93;101147.16;116291;1197;21914;-78
2021/10/11 04:28:47;;;;;;;66.80;50.40;;;;;;;1.97;70.03;101141.58;116145;1197;21897;-78
2021/10/11 04:31:17;;;;;;;69.00;48.40;;;;;;;1.93;70.00;101137.48;116135;1195;22657;-76
2021/10/11 04:33:50;;;;;;;70.30;52.20;;;;;;;1.88;70.16;101134.28;116290;1191;23542;-77
2021/10/11 04:36:21;;;;;;;72.60;50.70;;;;;;;1.82;70.14;101131.73;116718;1191;24469;-77
2021/10/11 04:38:51;;;;;;;70.50;50.60;;;;;;;1.78;70.25;101136.45;116760;1190;22968;-76
2021/10/11 04:41:20;;;;;;;75.30;54.60;;;;;;;1.76;70.48;101135.88;116719;1191;22869;-76
2021/10/11 04:43:49;;;;;;;75.30;53.60;;;;;;;1.79;70.78;101134.16;116716;1191;22945;-76
2021/10/11 04:46:19;;;;;;;87.10;59.00;;;;;;;1.83;70.80;101135.45;116746;1191;23839;-75
2021/10/11 04:48:48;;;;;;;84.30;60.10;;;;;;;1.86;70.76;101131.32;116500;1191;22917;-76
2021/10/11 04:51:17;;;;;;;93.20;57.40;;;;;;;1.87;70.80;101129.64;116899;1188;21888;-76
2021/10/11 04:53:46;;;;;;;78.10;54.90;;;;;;;1.88;70.75;101124.71;116873;1189;23561;-75
2021/10/11 04:56:15;;;;;;;74.90;52.40;;;;;;;1.88;70.60;101126.13;117006;1187;21877;-76
2021/10/11 04:58:45;;;;;;;72.30;55.20;;;;;;;1.88;70.56;101122.50;117016;1186;22622;-76
2021/10/11 05:01:14;;;;;;;77.00;56.30;;;;;;;1.87;70.59;101125.30;116750;1187;21866;-75
2021/10/11 05:03:44;;;;;;;81.10;60.90;;;;;;;1.88;70.67;101119.55;116489;1181;21891;-76
2021/10/11 05:06:13;;;;;;;80.70;59.50;;;;;;;1.84;70.60;101118.76;116548;1191;21920;-76
2021/10/11 05:08:42;;;;;;;82.10;59.00;;;;;;;1.84;70.90;101120.51;116565;1189;22019;-76
2021/10/11 05:11:11;;;;;;;79.70;59.60;;;;;;;1.87;70.97;101112.13;116516;1191;22144;-76
2021/10/11 05:13:40;;;;;;;84.00;60.20;;;;;;;1.88;70.92;101109.63;116488;1192;21877;-76
2021/10/11 05:16:14;;;;;;;72.50;57.70;;;;;;;1.85;70.65;101108.45;116481;1191;21893;-76
2021/10/11 05:18:45;;;;;;;72.90;57.40;;;;;;;1.82;70.76;101110.34;116823;1188;21923;-77
2021/10/11 05:21:15;;;;;;;73.50;56.50;;;;;;;1.78;70.54;101105.05;116954;1186;22076;-76
2021/10/11 05:23:44;;;;;;;74.70;57.90;;;;;;;1.70;70.55;101105.70;117044;1179;21870;-77
2021/10/11 05:26:13;;;;;;;74.50;58.10;;;;;;;1.62;70.47;101104.62;117138;1187;21877;-77
2021/10/11 05:28:43;;;;;;;79.40;59.60;;;;;;;1.52;70.52;101101.56;116897;1188;21893;-77
2021/10/11 05:31:12;;;;;;;87.80;63.20;;;;;;;1.46;70.80;101103.00;117070;1188;23899;-76
2021/10/11 05:33:41;;;;;;;94.40;66.50;;;;;;;1.42;70.90;101102.38;116808;1187;22226;-76
2021/10/11 05:36:10;;;;;;;85.20;61.60;;;;;;;1.40;71.11;101104.33;116795;1191;21891;-76
2021/10/11 05:38:40;;;;;;;77.60;58.10;;;;;;;1.39;71.26;101104.78;116478;1190;22914;-76
2021/10/11 05:41:11;;;;;;;90.00;60.30;;;;;;;1.36;71.39;101097.48;116494;1192;21955;-76
2021/10/11 05:43:40;;;;;;;75.10;56.30;;;;;;;1.32;71.26;101094.05;116559;1192;23553;-77
2021/10/11 05:46:10;;;;;;;79.90;58.10;;;;;;;1.26;71.29;101099.09;116416;1195;22923;-76
2021/10/11 05:48:39;;;;;;;85.50;60.60;;;;;;;1.22;71.46;101099.34;116133;1191;21893;-75
2021/10/11 05:51:08;;;;;;;80.90;61.10;;;;;;;1.22;71.70;101093.26;116170;1196;21923;-76
2021/10/11 05:53:39;;;;;;;81.90;60.30;;;;;;;1.24;71.91;101089.70;116210;1197;23555;-77
2021/10/11 05:56:08;;;;;;;82.70;60.30;;;;;;;1.24;72.01;101092.80;116156;1197;21931;-75
2021/10/11 05:58:38;;;;;;;83.40;59.90;;;;;;;1.25;72.08;101088.23;116162;1194;22496;-75
2021/10/11 06:01:07;;;;;;;73.80;55.80;;;;;;;1.28;72.30;101090.30;116142;1197;22044;-76
2021/10/11 06:03:36;;;;;;;78.00;56.60;;;;;;;1.30;72.37;101086.02;116282;1191;22851;-76
2021/10/11 06:06:06;;;;;;;76.90;56.80;;;;;;;1.33;72.48;101077.70;116803;1188;21898;-76
2021/10/11 06:08:35;;;;;;;77.30;58.10;;;;;;;1.36;72.54;101072.83;117105;1188;22927;-80
2021/10/11 06:11:04;;;;;;;80.50;61.80;;;;;;;1.38;72.62;101073.23;116912;1188;23419;-79
2021/10/11 06:13:34;;;;;;;75.80;56.60;;;;;;;1.38;72.68;101074.98;116889;1191;21899;-81
2021/10/11 06:16:04;;;;;;;80.80;56.60;;;;;;;1.42;72.89;101073.91;116615;1190;21911;-76
2021/10/11 06:18:33;;;;;;;80.70;57.20;;;;;;;1.47;73.04;101068.42;116804;1191;21947;-74
2021/10/11 06:21:03;;;;;;;85.10;57.30;;;;;;;1.56;73.29;101068.38;116434;1193;23444;-74
2021/10/11 06:23:33;;;;;;;77.00;56.70;;;;;;;1.66;73.42;101074.02;116490;1190;21896;-74
2021/10/11 06:26:02;;;;;;;72.00;55.40;;;;;;;1.75;73.51;101080.20;116491;1193;21909;-73
2021/10/11 06:28:31;;;;;;;74.50;55.10;;;;;;;1.85;73.48;101086.88;116502;1180;21895;-73
2021/10/11 06:31:01;;;;;;;76.00;57.00;;;;;;;1.95;73.56;101087.49;116213;1194;22498;-72
2021/10/11 06:33:30;;;;;;;78.00;59.20;;;;;;;2.06;73.62;101084.57;116206;1197;22796;-73
2021/10/11 06:35:59;;;;;;;80.20;60.00;;;;;;;2.17;73.70;101082.13;116073;1197;21907;-73
2021/10/11 06:38:29;;;;;;;78.50;61.00;;;;;;;2.30;73.71;101080.63;116307;1192;22981;-73
2021/10/11 06:40:58;;;;;;;82.60;59.50;;;;;;;2.43;73.61;101078.27;116324;1194;22915;-75
2021/10/11 06:43:27;;;;;;;68.70;55.50;;;;;;;2.55;73.57;101078.00;116460;1194;22917;-74
2021/10/11 06:45:57;;;;;;;72.00;57.20;;;;;;;2.68;73.54;101075.77;116440;1194;21897;-74
2021/10/11 06:48:26;;;;;;;73.10;55.80;;;;;;;2.81;73.34;101069.90;116532;1190;22260;-73
2021/10/11 06:50:55;;;;;;;72.10;55.80;;;;;;;2.92;73.33;101065.33;116874;1187;21888;-74
2021/10/11 06:53:24;;;;;;;74.10;54.70;;;;;;;3.05;73.23;101065.53;116807;1190;23434;-74
2021/10/11 06:55:53;;;;;;;80.70;55.80;;;;;;;3.20;73.18;101067.84;116810;1187;23541;-73
2021/10/11 06:58:23;;;;;;;80.40;58.80;;;;;;;3.35;73.19;101067.16;116780;1188;23536;-73
2021/10/11 07:00:52;;;;;;;79.50;56.30;;;;;;;3.54;73.23;101069.18;116645;1187;22922;-73
2021/10/11 07:03:25;;;;;;;73.80;57.10;;;;;;;3.76;73.19;101067.17;116793;1190;21883;-72
2021/10/11 07:06:03;;;;;;;74.70;56.50;;;;;;;3.99;72.85;101066.09;116779;1190;23538;-73
2021/10/11 07:08:34;;;;;;;81.20;56.30;;;;;;;4.16;72.43;101064.52;116810;1190;21886;-73
2021/10/11 07:11:04;;;;;;;85.10;55.60;;;;;;;4.41;72.59;101064.65;116749;1190;23439;-74
2021/10/11 07:13:35;;;;;;;72.70;53.30;;;;;;;4.76;72.98;101063.30;116768;1190;21962;-74
2021/10/11 07:16:05;;;;;;;70.10;52.50;;;;;;;5.21;73.29;101059.77;116672;1192;22940;-74
2021/10/11 07:18:35;;;;;;;69.60;50.30;;;;;;;5.70;73.07;101058.51;116694;1190;21969;-74
2021/10/11 07:21:07;;;;;;;70.30;51.40;;;;;;;6.19;72.51;101059.06;117001;1184;21895;-74
2021/10/11 07:23:36;;;;;;;69.80;49.60;;;;;;;6.64;71.54;101050.52;116722;1192;22245;-74
2021/10/11 07:26:07;;;;;;;58.60;45.70;;;;;;;7.05;70.29;101054.84;116692;1189;21929;-75
2021/10/11 07:28:36;;;;;;;64.20;48.90;;;;;;;7.39;68.82;101055.17;116818;1191;22907;-74
2021/10/11 07:31:06;;;;;;;58.80;46.40;;;;;;;7.74;67.99;101052.13;116758;1191;21899;-74
2021/10/11 07:33:35;;;;;;;56.40;45.10;;;;;;;8.09;66.87;101044.91;116814;1189;21919;-74
2021/10/11 07:36:05;;;;;;;52.60;41.50;;;;;;;8.47;66.23;101046.80;116897;1189;23456;-74
2021/10/11 07:38:35;;;;;;;50.30;40.30;;;;;;;8.85;64.83;101046.77;116698;1192;23443;-74
2021/10/11 07:41:04;;;;;;;54.00;40.70;;;;;;;9.13;62.87;101045.63;116724;1188;23464;-74
2021/10/11 07:43:34;;;;;;;50.60;40.70;;;;;;;9.40;62.27;101043.82;116481;1192;21892;-74
2021/10/11 07:46:05;;;;;;;48.70;40.10;;;;;;;9.75;61.66;101041.16;116616;1192;22344;-74
2021/10/11 07:48:35;;;;;;;52.90;41.50;;;;;;;10.08;60.59;101039.95;116560;1193;22920;-74
2021/10/11 07:51:04;;;;;;;60.00;41.70;;;;;;;10.36;59.23;101041.39;116462;1184;22909;-74
2021/10/11 07:53:33;;;;;;;58.10;43.60;;;;;;;10.57;58.24;101035.94;116460;1190;21874;-74
2021/10/11 07:56:02;;;;;;;80.80;52.10;;;;;;;10.86;57.73;101041.50;116500;1191;21893;-74
2021/10/11 07:58:32;;;;;;;52.10;42.70;;;;;;;11.15;57.04;101044.77;116702;1191;22166;-74
2021/10/11 08:01:01;;;;;;;52.00;41.60;;;;;;;11.45;56.66;101040.88;116688;1190;22344;-74
2021/10/11 08:03:30;;;;;;;48.30;40.40;;;;;;;11.76;55.89;101041.21;116694;1188;22229;-74
2021/10/11 08:06:03;;;;;;;48.80;40.20;;;;;;;12.02;54.90;101037.64;116520;1191;21890;-74
2021/10/11 08:08:34;;;;;;;41.60;31.70;;;;;;;12.23;53.89;101033.34;116803;1187;21877;-75
2021/10/11 08:11:04;;;;;;;42.30;29.90;;;;;;;12.40;53.16;101034.88;116861;1190;21892;-74
2021/10/11 08:13:33;;;;;;;37.80;27.60;;;;;;;12.60;52.50;101037.12;116739;1190;23451;-74
2021/10/11 08:16:03;;;;;;;43.50;36.00;;;;;;;12.77;51.52;101039.65;116865;1190;22964;-73
2021/10/11 08:18:33;;;;;;;41.60;29.80;;;;;;;12.95;50.83;101033.61;116853;1179;22909;-73
2021/10/11 08:21:04;;;;;;;34.60;26.50;;;;;;;12.96;49.29;101029.38;116700;1193;22676;-74
2021/10/11 08:23:41;;;;;;;33.50;25.30;;;;;;;12.87;48.57;101023.88;116625;1190;21907;-73
2021/10/11 08:26:11;;;;;;;33.80;26.60;;;;;;;12.78;48.87;101018.14;116820;1190;21881;-73
2021/10/11 08:28:40;;;;;;;33.70;26.00;;;;;;;12.83;48.91;101019.46;116858;1182;23102;-73
2021/10/11 08:31:09;;;;;;;33.80;27.30;;;;;;;12.81;48.23;101023.77;116786;1190;22825;-73
2021/10/11 08:33:40;;;;;;;34.30;27.30;;;;;;;12.83;48.18;101029.54;116787;1187;21875;-74
2021/10/11 08:36:15;;;;;;;31.70;27.60;;;;;;;12.90;48.29;101030.44;116827;1188;22912;-73
2021/10/11 08:38:44;;;;;;;30.10;25.90;;;;;;;13.00;48.18;101029.16;116839;1188;22935;-73
2021/10/11 08:41:15;;;;;;;32.90;27.20;;;;;;;13.12;48.25;101027.67;117000;1187;21890;-73
2021/10/11 08:43:44;;;;;;;37.80;30.80;;;;;;;13.27;48.34;101028.16;117040;1187;22337;-74
2021/10/11 08:46:14;;;;;;;92.50;33.10;;;;;;;13.44;48.12;101027.25;116999;1185;21899;-74
2021/10/11 08:48:44;;;;;;;31.70;25.10;;;;;;;13.56;47.54;101027.44;116873;1188;21908;-73
2021/10/11 08:51:13;;;;;;;54.00;44.70;;;;;;;13.65;47.04;101026.64;117029;1187;22247;-73
2021/10/11 08:53:43;;;;;;;59.80;32.50;;;;;;;13.62;46.63;101022.88;116764;1177;21878;-73
2021/10/11 08:56:13;;;;;;;48.50;29.60;;;;;;;13.55;46.48;101020.64;116846;1190;21887;-74
2021/10/11 08:58:49;;;;;;;46.30;31.60;;;;;;;13.52;46.56;101017.86;116702;1192;21989;-74
2021/10/11 09:01:23;;;;;;;63.70;39.40;;;;;;;13.52;46.51;101017.75;116575;1193;21907;-74
2021/10/11 09:04:23;;;;;;;36.10;28.50;;;;;;;13.55;46.83;101015.33;116314;1194;21937;-73
2021/10/11 09:07:06;;;;;;;71.30;38.60;;;;;;;13.69;46.79;101009.91;116246;1196;23549;-73
2021/10/11 09:09:47;;;;;;;55.90;31.90;;;;;;;13.71;46.16;101003.10;116288;1193;23461;-73
2021/10/11 09:12:29;;;;;;;41.10;31.40;;;;;;;13.58;45.50;100998.41;116376;1195;22182;-73
2021/10/11 09:15:13;;;;;;;;;;;;;;;13.45;45.87;100992.69;116173;1198;23439;-74
2021/10/11 09:18:06;;;;;;;35.40;28.00;;;;;;;13.27;45.97;100990.98;116326;1196;21877;-73
2021/10/11 09:20:41;;;;;;;34.30;25.90;;;;;;;13.15;46.12;100993.02;116463;1194;22241;-74
2021/10/11 09:23:11;;;;;;;34.20;25.50;;;;;;;13.08;46.29;100989.58;116352;1196;21900;-73
2021/10/11 09:25:40;;;;;;;29.70;24.10;;;;;;;13.01;46.16;100991.04;116187;1194;23558;-74
2021/10/11 09:28:09;;;;;;;31.70;22.50;;;;;;;12.93;45.91;100988.93;116193;1197;21917;-73
2021/10/11 09:30:41;;;;;;;28.00;22.20;;;;;;;12.87;46.04;100987.61;116203;1197;22679;-74
2021/10/11 09:33:12;;;;;;;39.10;24.10;;;;;;;12.91;46.19;100985.52;116390;1193;23027;-73
2021/10/11 09:35:42;;;;;;;29.60;22.70;;;;;;;12.98;45.93;100987.30;116690;1187;21902;-73
2021/10/11 09:38:27;;;;;;;31.10;23.30;;;;;;;13.01;45.55;100986.73;116722;1192;22094;-74
2021/10/11 09:40:59;;;;;;;33.40;27.50;;;;;;;13.03;45.51;100982.20;116672;1191;21880;-73
2021/10/11 09:43:31;;;;;;;33.90;25.50;;;;;;;13.12;45.68;100974.63;116913;1187;21942;-73
2021/10/11 09:46:12;;;;;;;36.50;26.30;;;;;;;13.14;45.25;100964.84;116908;1190;21899;-73
2021/10/11 09:49:08;;;;;;;;;;;;;;;13.15;44.99;100956.34;116850;1187;21877;-73
2021/10/11 09:51:37;;;;;;;33.70;21.30;;;;;;;13.12;44.97;100952.00;116697;1192;23065;-73
2021/10/11 09:54:07;;;;;;;28.60;21.50;;;;;;;13.17;44.99;100947.67;116719;1191;21878;-73
2021/10/11 09:56:36;;;;;;;36.30;25.20;;;;;;;13.23;44.71;100941.05;116789;1188;22043;-73
2021/10/11 09:59:10;;;;;;;44.10;30.50;;;;;;;13.30;44.71;100940.96;116776;1187;21879;-73
2021/10/11 10:01:42;;;;;;;43.90;30.90;;;;;;;13.35;44.33;100942.88;116796;1191;23495;-73
2021/10/11 10:04:27;;;;;;;37.60;29.60;;;;;;;13.27;44.00;100932.85;116821;1187;24182;-73
2021/10/11 10:07:00;;;;;;;39.70;28.80;;;;;;;13.22;44.46;100925.64;116557;1193;21999;-73
2021/10/11 10:09:30;;;;;;;73.70;49.60;;;;;;;13.25;44.54;100929.54;116509;1193;22211;-73
2021/10/11 10:12:04;;;;;;;42.10;31.00;;;;;;;13.17;43.90;100933.16;116445;1193;24280;-73
2021/10/11 10:14:35;;;;;;;33.90;24.30;;;;;;;13.17;44.64;100932.86;116529;1193;23441;-73
2021/10/11 10:17:05;;;;;;;31.00;23.20;;;;;;;13.25;44.58;100928.48;116624;1193;23621;-73
2021/10/11 10:19:40;;;;;;;27.50;20.50;;;;;;;13.26;44.13;100925.02;116751;1193;23426;-74
2021/10/11 10:22:14;;;;;;;25.70;20.80;;;;;;;13.18;44.10;100925.20;116404;1194;21894;-74
2021/10/11 10:24:44;;;;;;;27.60;21.40;;;;;;;13.14;44.51;100919.33;116446;1193;23670;-74
2021/10/11 10:27:14;;;;;;;28.80;21.80;;;;;;;13.17;44.78;100912.42;116496;1194;22864;-74
2021/10/11 10:29:47;;;;;;;24.50;21.00;;;;;;;13.27;45.00;100908.07;116631;1191;22628;-74
2021/10/11 10:32:19;;;;;;;40.10;26.20;;;;;;;13.34;44.87;100907.24;116492;1184;21891;-72
2021/10/11 10:35:01;;;;;;;;;;;;;;;13.36;44.36;100909.54;116864;1187;23542;-73
2021/10/11 10:37:38;;;;;;;23.70;21.00;;;;;;;13.24;44.18;100905.79;116720;1192;22726;-74
2021/10/11 10:40:14;;;;;;;40.80;23.70;;;;;;;13.18;44.32;100905.86;116832;1180;23621;-74
2021/10/11 10:42:44;;;;;;;38.30;23.80;;;;;;;13.21;44.62;100901.34;116844;1187;21894;-73
2021/10/11 10:45:21;;;;;;;38.10;23.50;;;;;;;13.26;44.69;100895.77;116533;1191;22251;-74
2021/10/11 10:47:50;;;;;;;25.20;21.30;;;;;;;13.38;44.88;100892.32;116654;1191;22634;-74
2021/10/11 10:50:24;;;;;;;28.00;22.10;;;;;;;13.53;44.58;100890.61;116625;1192;23491;-74
2021/10/11 10:52:57;;;;;;;29.10;22.80;;;;;;;13.63;44.15;100890.36;116826;1191;23467;-74
2021/10/11 10:55:27;;;;;;;31.20;24.20;;;;;;;13.67;44.07;100889.77;116684;1191;22142;-73
2021/10/11 10:58:03;;;;;;;25.40;21.30;;;;;;;13.83;44.34;100886.33;116771;1191;22002;-74
2021/10/11 11:00:32;;;;;;;29.90;21.60;;;;;;;13.99;43.86;100885.88;116802;1189;22127;-74
2021/10/11 11:03:02;;;;;;;28.40;20.60;;;;;;;14.04;43.35;100885.45;117088;1188;22975;-74
2021/10/11 11:05:32;;;;;;;29.70;22.30;;;;;;;14.03;42.73;100884.20;116943;1188;23474;-74
2021/10/11 11:08:01;;;;;;;26.90;20.20;;;;;;;13.96;42.34;100882.73;117061;1188;21874;-73
2021/10/11 11:10:36;;;;;;;24.40;20.10;;;;;;;13.89;42.23;100876.27;117033;1186;23690;-74
2021/10/11 11:13:14;;;;;;;32.10;23.10;;;;;;;13.88;42.30;100865.55;116779;1190;22649;-74
2021/10/11 11:15:52;;;;;;;25.50;22.10;;;;;;;13.87;42.18;100866.75;116925;1190;21893;-73
2021/10/11 11:18:24;;;;;;;27.90;20.90;;;;;;;13.84;42.30;100864.27;116835;1190;22533;-74
2021/10/11 11:20:56;;;;;;;24.20;20.10;;;;;;;13.83;42.39;100861.56;116869;1190;21884;-73
2021/10/11 11:23:34;;;;;;;29.60;21.70;;;;;;;13.84;42.61;100865.42;116910;1190;21910;-74
2021/10/11 11:26:05;;;;;;;25.30;19.80;;;;;;;13.87;42.49;100868.50;116481;1192;22383;-72